Time;durP1;ratioP1;P1;durP2;ratioP2;P2;SDS_P1;SDS_P2;PMS_P1;PMS_P2;Temp;Humidity;BMP_temperature;BMP_pressure;BME280_temperature;BME280_humidity;BME280_pressure;Samples;Min_cycle;Max_cycle;Signal;HPM_P1;HPM_P2
2023/04/04 00:01:35;;;;;;;12.77;5.30;;;5.20;99.90;;;;;;5090016;28;20051;-58
2023/04/04 00:04:03;;;;;;;16.02;5.82;;;5.20;99.90;;;;;;5101204;28;20594;-59
2023/04/04 00:06:31;;;;;;;12.48;4.93;;;4.70;99.90;;;;;;5110534;28;20058;-59
2023/04/04 00:08:58;;;;;;;11.52;5.45;;;5.10;99.90;;;;;;5097550;28;20048;-59
2023/04/04 00:11:26;;;;;;;11.07;5.88;;;5.10;99.90;;;;;;5088413;28;20040;-58
2023/04/04 00:13:54;;;;;;;11.70;6.80;;;5.00;99.90;;;;;;5099751;28;20040;-57
2023/04/04 00:16:22;;;;;;;9.40;4.30;;;5.00;99.90;;;;;;5104204;28;20048;-57
2023/04/04 00:18:49;;;;;;;15.15;5.97;;;4.90;99.90;;;;;;5084453;28;20398;-58
2023/04/04 00:21:17;;;;;;;10.63;5.28;;;;;;;;;;5105725;28;20043;-59
2023/04/04 00:23:45;;;;;;;7.85;4.47;;;4.90;99.90;;;;;;5105352;28;20040;-59
2023/04/04 00:26:13;;;;;;;10.93;4.43;;;4.80;99.90;;;;;;5107456;28;20043;-59
2023/04/04 00:28:41;;;;;;;9.10;4.20;;;4.70;99.90;;;;;;5101574;28;20043;-58
2023/04/04 00:31:09;;;;;;;10.23;3.92;;;4.70;99.90;;;;;;5105435;28;20070;-59
2023/04/04 00:33:37;;;;;;;7.70;3.80;;;4.70;99.90;;;;;;5106443;28;20044;-58
2023/04/04 00:36:05;;;;;;;6.68;3.58;;;4.60;99.90;;;;;;5089474;28;20493;-59
2023/04/04 00:38:32;;;;;;;7.72;4.13;;;4.60;99.90;;;;;;5088823;28;20048;-58
2023/04/04 00:41:00;;;;;;;13.20;5.50;;;4.60;99.90;;;;;;5103740;28;20044;-59
2023/04/04 00:43:28;;;;;;;9.35;3.65;;;4.50;99.90;;;;;;5105957;28;20040;-57
2023/04/04 00:45:56;;;;;;;6.93;3.25;;;4.50;99.90;;;;;;5109385;28;20054;-57
2023/04/04 00:48:24;;;;;;;10.27;3.35;;;4.50;99.90;;;;;;5105106;28;20057;-59
2023/04/04 00:50:52;;;;;;;5.95;3.35;;;4.40;99.90;;;;;;5103915;28;20050;-59
2023/04/04 00:53:20;;;;;;;9.45;3.65;;;4.40;99.90;;;;;;5092428;28;20047;-58
2023/04/04 00:55:47;;;;;;;3.45;2.60;;;4.30;99.90;;;;;;5108217;28;20043;-58
2023/04/04 00:58:16;;;;;;;6.68;3.22;;;4.30;99.90;;;;;;5087401;28;20048;-58
2023/04/04 01:00:44;;;;;;;9.63;2.85;;;3.80;99.90;;;;;;5106692;28;20395;-59
2023/04/04 01:03:13;;;;;;;9.07;2.75;;;4.20;99.90;;;;;;5098847;28;20040;-58
2023/04/04 01:05:40;;;;;;;8.52;3.22;;;4.20;99.90;;;;;;5089037;28;20422;-59
2023/04/04 01:08:08;;;;;;;5.32;2.55;;;4.10;99.90;;;;;;5085461;28;20042;-58
2023/04/04 01:10:37;;;;;;;5.72;2.80;;;4.10;99.90;;;;;;5107148;28;20406;-59
2023/04/04 01:13:08;;;;;;;6.40;2.60;;;4.00;99.90;;;;;;5083038;28;20055;-59
2023/04/04 01:15:40;;;;;;;6.22;2.88;;;3.90;99.90;;;;;;5089508;28;20401;-58
2023/04/04 01:18:08;;;;;;;5.75;2.40;;;4.70;99.90;;;;;;5103239;28;20058;-58
2023/04/04 01:20:51;;;;;;;5.28;2.53;;;3.90;99.90;;;;;;5089886;28;20054;-58
2023/04/04 01:23:29;;;;;;;6.60;2.20;;;3.90;99.90;;;;;;5088443;28;20043;-58
2023/04/04 01:26:02;;;;;;;3.65;1.77;;;3.80;99.90;;;;;;5100018;28;20040;-58
2023/04/04 01:28:32;;;;;;;5.95;2.30;;;;;;;;;;5094262;28;20043;-58
2023/04/04 01:31:04;;;;;;;5.35;2.20;;;3.70;99.90;;;;;;5086581;28;20055;-59
2023/04/04 01:33:42;;;;;;;7.25;2.80;;;3.60;99.90;;;;;;5108418;28;20035;-58
2023/04/04 01:36:35;;;;;;;6.00;2.10;;;3.70;99.90;;;;;;5104244;28;20056;-58
2023/04/04 01:39:17;;;;;;;9.25;2.22;;;3.60;99.90;;;;;;5083506;28;20044;-57
2023/04/04 01:41:48;;;;;;;5.70;2.17;;;3.50;99.90;;;;;;5096575;28;20051;-58
2023/04/04 01:44:17;;;;;;;4.72;2.35;;;3.50;99.90;;;;;;5085017;28;20043;-58
2023/04/04 01:46:47;;;;;;;8.65;2.53;;;3.50;99.90;;;;;;5083285;28;20043;-58
2023/04/04 01:49:15;;;;;;;6.32;2.47;;;3.50;99.90;;;;;;5084225;28;20046;-58
2023/04/04 01:51:44;;;;;;;7.13;2.33;;;3.40;99.90;;;;;;5109945;28;20048;-57
2023/04/04 01:54:12;;;;;;;5.55;2.13;;;3.40;99.90;;;;;;5091702;28;20513;-58
2023/04/04 01:56:39;;;;;;;9.15;2.55;;;3.40;99.90;;;;;;5111255;28;20052;-59
2023/04/04 01:59:07;;;;;;;5.65;2.25;;;3.30;99.90;;;;;;5105121;28;20036;-58
2023/04/04 02:01:35;;;;;;;10.35;2.92;;;3.30;99.90;;;;;;5106512;28;20043;-57
2023/04/04 02:04:04;;;;;;;4.45;2.45;;;3.30;99.90;;;;;;5091009;28;20113;-58
2023/04/04 02:06:31;;;;;;;6.85;2.80;;;3.20;99.90;;;;;;5092838;28;20055;-58
2023/04/04 02:09:02;;;;;;;6.78;2.45;;;3.10;99.90;;;;;;5091614;28;20506;-59
2023/04/04 02:11:31;;;;;;;9.60;2.72;;;3.10;99.90;;;;;;5107107;28;20039;-57
2023/04/04 02:13:59;;;;;;;9.52;2.38;;;3.10;99.90;;;;;;5108088;28;20040;-58
2023/04/04 02:16:29;;;;;;;4.78;2.42;;;3.00;99.90;;;;;;5105457;28;20039;-58
2023/04/04 02:18:57;;;;;;;7.22;2.70;;;3.00;99.90;;;;;;5108185;28;20479;-57
2023/04/04 02:21:26;;;;;;;7.65;3.03;;;3.00;99.90;;;;;;5113807;28;20048;-58
2023/04/04 02:23:53;;;;;;;6.88;2.88;;;2.90;99.90;;;;;;5095067;28;20046;-59
2023/04/04 02:26:21;;;;;;;7.57;3.55;;;2.90;99.90;;;;;;5115606;28;20043;-58
2023/04/04 02:28:49;;;;;;;6.60;2.80;;;2.90;99.90;;;;;;5077609;28;20040;-58
2023/04/04 02:31:17;;;;;;;3.78;2.30;;;2.80;99.90;;;;;;5114015;28;20043;-58
2023/04/04 02:33:45;;;;;;;6.70;2.35;;;2.80;99.90;;;;;;5086444;28;20407;-58
2023/04/04 02:36:17;;;;;;;9.38;2.78;;;2.70;99.90;;;;;;5096574;28;20051;-58
2023/04/04 02:38:47;;;;;;;4.40;2.92;;;2.60;99.90;;;;;;5095897;28;20525;-57
2023/04/04 02:41:15;;;;;;;6.30;2.60;;;2.50;99.90;;;;;;5080207;28;20044;-58
2023/04/04 02:43:43;;;;;;;6.55;2.75;;;2.50;99.90;;;;;;5103615;28;20044;-57
2023/04/04 02:46:11;;;;;;;11.05;2.83;;;2.40;99.90;;;;;;5078105;28;20051;-57
2023/04/04 02:48:53;;;;;;;9.90;2.85;;;2.30;99.90;;;;;;5111422;28;20055;-58
2023/04/04 02:51:21;;;;;;;10.25;2.85;;;2.00;99.90;;;;;;5077740;28;20518;-57
2023/04/04 02:53:49;;;;;;;6.30;2.88;;;2.10;99.90;;;;;;5076483;28;21491;-57
2023/04/04 02:56:25;;;;;;;6.53;2.92;;;2.10;99.90;;;;;;5108923;28;20044;-57
2023/04/04 02:58:54;;;;;;;8.77;3.33;;;2.00;99.90;;;;;;5102026;28;20050;-58
2023/04/04 03:01:22;;;;;;;6.63;2.88;;;2.00;99.90;;;;;;5095162;28;20035;-58
2023/04/04 03:03:50;;;;;;;10.20;3.22;;;1.90;99.90;;;;;;5107575;28;20054;-57
2023/04/04 03:06:18;;;;;;;5.13;2.83;;;1.90;99.90;;;;;;5088393;28;20044;-57
2023/04/04 03:08:49;;;;;;;7.18;3.00;;;1.80;99.90;;;;;;5093304;28;20039;-57
2023/04/04 03:11:20;;;;;;;5.65;2.60;;;1.80;99.90;;;;;;5113068;28;20050;-58
2023/04/04 03:13:50;;;;;;;7.00;2.90;;;1.80;99.90;;;;;;5075859;28;20047;-58
2023/04/04 03:16:21;;;;;;;8.15;2.80;;;1.70;99.90;;;;;;5095392;28;20541;-58
2023/04/04 03:18:51;;;;;;;8.95;3.10;;;1.60;99.90;;;;;;5086136;28;20039;-58
2023/04/04 03:21:21;;;;;;;8.60;3.28;;;1.60;99.90;;;;;;5094696;28;20047;-57
2023/04/04 03:23:49;;;;;;;5.25;2.53;;;1.50;99.90;;;;;;5109029;28;20483;-57
2023/04/04 03:26:16;;;;;;;4.95;2.65;;;1.40;99.90;;;;;;5109704;28;20668;-58
2023/04/04 03:28:44;;;;;;;7.93;3.53;;;1.40;99.90;;;;;;5094390;28;20386;-58
2023/04/04 03:31:13;;;;;;;4.00;2.53;;;1.30;99.90;;;;;;5096492;28;20043;-58
2023/04/04 03:33:42;;;;;;;10.38;3.30;;;1.30;99.90;;;;;;5097728;28;20051;-58
2023/04/04 03:36:13;;;;;;;8.10;3.25;;;1.20;99.90;;;;;;5102602;28;20069;-59
2023/04/04 03:38:41;;;;;;;7.32;2.95;;;1.20;99.90;;;;;;5096210;28;20047;-58
2023/04/04 03:41:11;;;;;;;8.25;3.17;;;1.20;99.90;;;;;;5078679;28;20482;-57
2023/04/04 03:43:38;;;;;;;5.55;3.03;;;1.20;99.90;;;;;;5107274;28;20043;-59
2023/04/04 03:46:07;;;;;;;11.57;3.80;;;1.10;99.90;;;;;;5094191;28;20040;-57
2023/04/04 03:48:36;;;;;;;7.07;3.92;;;1.10;99.90;;;;;;5092392;28;20395;-59
2023/04/04 03:51:06;;;;;;;7.05;3.42;;;1.10;99.90;;;;;;5074467;28;20036;-57
2023/04/04 03:53:36;;;;;;;17.35;3.88;;;1.00;99.90;;;;;;5100325;28;20044;-58
2023/04/04 03:56:03;;;;;;;8.95;3.65;;;0.90;99.90;;;;;;5114434;28;20039;-58
2023/04/04 03:58:34;;;;;;;9.57;3.80;;;0.90;99.90;;;;;;5114295;28;20044;-57
2023/04/04 04:01:02;;;;;;;7.32;2.97;;;0.80;99.90;;;;;;5111854;28;20036;-57
2023/04/04 04:03:30;;;;;;;5.85;2.67;;;0.80;99.90;;;;;;5111227;28;20519;-59
2023/04/04 04:05:59;;;;;;;9.73;2.95;;;0.80;99.90;;;;;;5094193;28;20035;-58
2023/04/04 04:08:26;;;;;;;11.38;4.43;;;0.70;99.90;;;;;;5093623;28;20044;-58
2023/04/04 04:10:54;;;;;;;8.27;3.20;;;0.70;99.90;;;;;;5092871;28;20063;-57
2023/04/04 04:13:22;;;;;;;11.23;3.42;;;0.60;99.90;;;;;;5103103;28;20052;-57
2023/04/04 04:15:53;;;;;;;12.77;3.70;;;0.60;99.90;;;;;;5095967;28;20043;-58
2023/04/04 04:18:22;;;;;;;15.20;3.22;;;0.50;99.90;;;;;;5096094;28;20047;-58
2023/04/04 04:20:55;;;;;;;;;;;0.50;99.90;;;;;;5095335;28;20040;-57
2023/04/04 04:23:23;;;;;;;10.20;3.38;;;0.40;99.90;;;;;;5095796;28;19923;-58
2023/04/04 04:25:51;;;;;;;7.60;3.72;;;0.40;99.90;;;;;;5112692;28;20043;-58
2023/04/04 04:28:25;;;;;;;10.82;4.18;;;0.40;99.90;;;;;;5087349;28;20028;-58
2023/04/04 04:31:08;;;;;;;16.30;4.93;;;0.40;99.90;;;;;;5097053;28;20671;-57
2023/04/04 04:33:42;;;;;;;15.50;4.07;;;0.40;99.90;;;;;;5092307;28;20039;-59
2023/04/04 04:36:10;;;;;;;18.90;4.22;;;0.30;99.90;;;;;;5097106;28;20534;-58
2023/04/04 04:38:47;;;;;;;18.70;4.38;;;0.20;99.90;;;;;;5074647;28;20051;-58
2023/04/04 04:41:16;;;;;;;11.52;4.20;;;0.20;99.90;;;;;;5073617;28;20040;-57
2023/04/04 04:43:48;;;;;;;11.98;4.97;;;0.10;99.90;;;;;;5088418;28;20040;-58
2023/04/04 04:46:15;;;;;;;11.13;4.43;;;0.10;99.90;;;;;;5071163;28;20040;-58
2023/04/04 04:48:44;;;;;;;15.05;4.63;;;0.10;99.90;;;;;;5081735;28;20036;-59
2023/04/04 04:51:14;;;;;;;13.35;4.55;;;0.10;99.90;;;;;;5103841;28;20044;-58
2023/04/04 04:53:46;;;;;;;12.90;4.13;;;0.00;99.90;;;;;;5103473;28;20052;-57
2023/04/04 04:56:14;;;;;;;16.15;4.70;;;0.00;99.90;;;;;;5085398;28;20040;-58
2023/04/04 04:58:46;;;;;;;9.65;4.75;;;0.00;99.90;;;;;;5096465;28;20044;-58
2023/04/04 05:01:21;;;;;;;15.82;4.90;;;0.00;99.90;;;;;;5103824;28;20048;-57
2023/04/04 05:03:53;;;;;;;12.63;5.00;;;0.00;99.90;;;;;;5053733;28;20480;-58
2023/04/04 05:06:27;;;;;;;7.03;3.65;;;0.00;99.90;;;;;;5064377;28;20479;-60
2023/04/04 05:08:56;;;;;;;9.60;4.60;;;-0.20;99.90;;;;;;5079687;28;20039;-57
2023/04/04 05:11:29;;;;;;;10.30;4.13;;;-0.10;99.90;;;;;;5083590;28;20431;-58
2023/04/04 05:14:01;;;;;;;12.27;5.10;;;-0.10;99.90;;;;;;5078272;28;20395;-60
2023/04/04 05:16:34;;;;;;;10.88;4.25;;;-0.10;99.90;;;;;;5099371;28;20040;-58
2023/04/04 05:19:06;;;;;;;8.98;3.75;;;-0.10;99.90;;;;;;5077692;28;20036;-57
2023/04/04 05:21:43;;;;;;;11.45;4.20;;;-0.20;99.90;;;;;;5081684;28;20040;-59
2023/04/04 05:24:18;;;;;;;15.57;4.82;;;-0.20;99.90;;;;;;5098798;28;20403;-58
2023/04/04 05:26:47;;;;;;;7.22;3.80;;;-0.20;99.90;;;;;;5083974;28;20483;-57
2023/04/04 05:29:15;;;;;;;10.45;4.38;;;-0.20;99.90;;;;;;5094783;28;20058;-58
2023/04/04 05:31:46;;;;;;;11.95;4.60;;;-0.20;99.90;;;;;;5071581;28;20295;-57
2023/04/04 05:34:18;;;;;;;18.02;5.20;;;-0.20;99.90;;;;;;5083593;28;20047;-57
2023/04/04 05:36:49;;;;;;;11.38;4.43;;;-0.30;99.90;;;;;;5082149;28;20041;-59
2023/04/04 05:39:19;;;;;;;9.70;4.95;;;-0.30;99.90;;;;;;5076519;28;20502;-57
2023/04/04 05:41:59;;;;;;;7.82;4.03;;;0.60;99.90;;;;;;5090096;28;20472;-58
2023/04/04 05:44:31;;;;;;;10.90;4.20;;;-0.40;99.90;;;;;;5099687;28;20040;-58
2023/04/04 05:46:59;;;;;;;8.35;3.80;;;-0.40;99.90;;;;;;5079058;28;20051;-59
2023/04/04 05:49:31;;;;;;;9.98;4.60;;;-0.40;99.90;;;;;;5069698;28;20057;-60
2023/04/04 05:52:01;;;;;;;12.40;4.25;;;-0.50;99.90;;;;;;5085142;28;20059;-57
2023/04/04 05:54:34;;;;;;;12.98;4.85;;;-0.40;99.90;;;;;;5085159;28;20040;-58
2023/04/04 05:57:07;;;;;;;13.52;5.03;;;-0.40;99.90;;;;;;5103526;28;20044;-59
2023/04/04 05:59:39;;;;;;;14.45;5.50;;;-0.40;99.90;;;;;;5085261;28;20055;-61
2023/04/04 06:02:09;;;;;;;15.90;5.53;;;-0.30;99.90;;;;;;5081213;28;20504;-59
2023/04/04 06:04:41;;;;;;;11.38;4.47;;;-0.30;99.90;;;;;;5083930;28;20507;-59
2023/04/04 06:07:11;;;;;;;14.18;5.40;;;-0.30;99.90;;;;;;5083563;28;20040;-57
2023/04/04 06:09:40;;;;;;;12.77;4.82;;;-0.30;99.90;;;;;;5083360;28;20067;-58
2023/04/04 06:12:08;;;;;;;11.30;5.00;;;-0.20;99.90;;;;;;5084023;28;20048;-58
2023/04/04 06:14:40;;;;;;;18.13;5.50;;;-0.20;99.90;;;;;;5096352;28;20048;-58
2023/04/04 06:17:09;;;;;;;;;;;-0.10;99.90;;;;;;5098239;28;20055;-58
2023/04/04 06:19:37;;;;;;;10.43;5.15;;;-0.10;99.90;;;;;;5081682;28;20401;-59
2023/04/04 06:22:04;;;;;;;16.58;5.55;;;0.00;99.90;;;;;;5078622;28;20052;-58
2023/04/04 06:24:35;;;;;;;13.35;5.05;;;0.00;99.90;;;;;;5083319;28;20051;-59
2023/04/04 06:27:05;;;;;;;33.75;7.55;;;0.10;99.90;;;;;;5102267;28;20040;-58
2023/04/04 06:29:35;;;;;;;8.45;5.07;;;0.20;99.90;;;;;;5086018;28;20046;-58
2023/04/04 06:32:05;;;;;;;12.80;4.75;;;0.30;99.90;;;;;;5093430;28;20036;-59
2023/04/04 06:34:39;;;;;;;14.40;4.80;;;0.40;99.90;;;;;;5087732;28;20067;-58
2023/04/04 06:37:07;;;;;;;9.85;5.00;;;0.40;99.90;;;;;;5088502;28;20047;-58
2023/04/04 06:39:42;;;;;;;10.07;4.35;;;0.40;99.90;;;;;;5084823;28;20043;-59
2023/04/04 06:42:19;;;;;;;19.38;5.00;;;0.50;99.90;;;;;;5106973;28;20043;-59
2023/04/04 06:44:49;;;;;;;8.10;4.30;;;0.50;99.90;;;;;;5090217;28;20031;-58
2023/04/04 06:47:20;;;;;;;12.80;4.53;;;0.50;99.90;;;;;;5086437;28;20413;-58
2023/04/04 06:49:48;;;;;;;13.43;5.22;;;1.30;99.90;;;;;;5089703;28;20534;-57
2023/04/04 06:52:17;;;;;;;14.00;5.37;;;0.70;99.90;;;;;;5083142;28;20352;-57
2023/04/04 06:54:46;;;;;;;15.10;5.80;;;0.80;99.90;;;;;;5103529;28;20307;-57
2023/04/04 06:57:14;;;;;;;10.85;5.00;;;0.80;99.90;;;;;;5106463;28;20043;-59
2023/04/04 06:59:42;;;;;;;10.02;5.25;;;1.00;99.90;;;;;;5107782;28;20055;-59
2023/04/04 07:02:11;;;;;;;;;;;0.90;99.90;;;;;;5086390;28;20039;-59
2023/04/04 07:04:41;;;;;;;;;;;1.00;99.90;;;;;;5079803;28;19920;-57
2023/04/04 07:07:11;;;;;;;12.50;4.90;;;1.20;99.90;;;;;;5107991;28;20318;-58
2023/04/04 07:09:38;;;;;;;10.75;4.35;;;1.30;99.90;;;;;;5111705;28;20050;-59
2023/04/04 07:12:06;;;;;;;11.52;4.65;;;1.40;99.90;;;;;;5111815;28;20043;-59
2023/04/04 07:14:34;;;;;;;15.02;4.32;;;1.60;99.90;;;;;;5104684;28;20040;-58
2023/04/04 07:17:01;;;;;;;11.82;4.72;;;1.60;99.90;;;;;;5107214;28;20040;-60
2023/04/04 07:19:43;;;;;;;8.05;3.90;;;1.70;99.90;;;;;;5089922;28;20406;-59
2023/04/04 07:22:12;;;;;;;9.85;3.75;;;2.00;99.90;;;;;;5107093;28;20036;-58
2023/04/04 07:24:41;;;;;;;8.95;4.13;;;2.10;99.90;;;;;;5102428;28;20050;-58
2023/04/04 07:27:15;;;;;;;7.10;3.50;;;2.10;99.90;;;;;;5092301;28;20210;-58
2023/04/04 07:29:43;;;;;;;11.13;3.83;;;2.40;99.90;;;;;;5111119;28;20058;-59
2023/04/04 07:32:10;;;;;;;7.93;3.42;;;2.30;99.90;;;;;;5109353;28;20047;-59
2023/04/04 07:34:38;;;;;;;11.45;3.60;;;2.50;99.90;;;;;;5100309;28;20047;-58
2023/04/04 07:37:06;;;;;;;8.90;3.72;;;2.70;99.90;;;;;;5107871;28;20040;-59
2023/04/04 07:39:34;;;;;;;7.20;3.22;;;2.70;99.90;;;;;;5104882;28;20047;-58
2023/04/04 07:42:01;;;;;;;9.95;3.55;;;2.80;99.90;;;;;;5107226;28;20044;-57
2023/04/04 07:44:29;;;;;;;7.60;3.40;;;3.00;99.90;;;;;;5105868;28;20063;-57
2023/04/04 07:46:57;;;;;;;10.00;3.40;;;3.10;99.90;;;;;;5102229;28;20044;-58
2023/04/04 07:49:36;;;;;;;12.77;3.53;;;3.30;99.90;;;;;;5103624;28;20482;-58
2023/04/04 07:52:04;;;;;;;10.43;3.67;;;3.30;99.90;;;;;;5088069;28;20299;-59
2023/04/04 07:54:31;;;;;;;8.40;3.55;;;3.40;99.90;;;;;;5103471;28;20122;-58
2023/04/04 07:56:59;;;;;;;8.68;2.60;;;3.50;99.90;;;;;;5107645;28;20040;-59
2023/04/04 07:59:27;;;;;;;6.70;3.50;;;3.60;99.90;;;;;;5109073;28;20047;-59
2023/04/04 08:01:54;;;;;;;15.57;3.85;;;3.70;99.90;;;;;;5110728;28;20059;-58
2023/04/04 08:04:23;;;;;;;11.52;3.65;;;3.80;99.90;;;;;;5108733;28;20051;-58
2023/04/04 08:06:52;;;;;;;6.95;2.83;;;3.80;99.90;;;;;;5110104;28;20059;-57
2023/04/04 08:09:19;;;;;;;10.38;3.15;;;4.00;99.90;;;;;;5110435;28;20057;-58
2023/04/04 08:11:47;;;;;;;9.95;3.17;;;4.20;99.90;;;;;;5110628;28;20067;-57
2023/04/04 08:14:14;;;;;;;13.00;4.72;;;4.30;99.90;;;;;;5092431;28;20071;-58
2023/04/04 08:16:42;;;;;;;7.45;2.80;;;4.40;99.90;;;;;;5089665;28;20051;-58
2023/04/04 08:19:10;;;;;;;6.22;2.53;;;4.40;99.90;;;;;;5108319;28;20058;-59
2023/04/04 08:21:37;;;;;;;7.75;3.10;;;4.50;99.90;;;;;;5110444;28;20044;-59
2023/04/04 08:24:05;;;;;;;9.20;2.83;;;4.60;99.90;;;;;;5109813;28;20429;-59
2023/04/04 08:26:33;;;;;;;4.97;2.67;;;4.70;99.90;;;;;;5109924;28;20047;-59
2023/04/04 08:29:00;;;;;;;7.38;2.85;;;4.80;99.90;;;;;;5093947;28;20476;-59
2023/04/04 08:31:29;;;;;;;6.70;2.90;;;4.90;99.90;;;;;;5109517;28;20044;-58
2023/04/04 08:34:00;;;;;;;10.70;3.63;;;5.00;99.90;;;;;;5100839;28;20046;-59
2023/04/04 08:36:29;;;;;;;9.95;3.05;;;5.10;99.90;;;;;;5109999;28;20299;-59
2023/04/04 08:38:57;;;;;;;9.43;3.95;;;5.20;99.90;;;;;;5108789;28;20371;-58
2023/04/04 08:41:25;;;;;;;8.60;3.47;;;5.30;99.90;;;;;;5096825;28;20048;-58
2023/04/04 08:43:56;;;;;;;8.18;2.47;;;5.40;99.90;;;;;;5079731;28;20059;-58
2023/04/04 08:46:24;;;;;;;9.23;3.00;;;5.40;99.90;;;;;;5091009;28;20044;-59
2023/04/04 08:48:55;;;;;;;8.27;3.17;;;5.50;99.90;;;;;;5103563;28;20047;-58
2023/04/04 08:51:25;;;;;;;7.72;3.10;;;5.60;99.90;;;;;;5109255;28;20449;-59
2023/04/04 08:53:54;;;;;;;8.52;3.47;;;5.70;99.90;;;;;;5109387;28;20505;-59
2023/04/04 08:56:22;;;;;;;13.00;2.72;;;5.80;99.90;;;;;;5109773;28;20051;-58
2023/04/04 08:58:50;;;;;;;8.80;2.95;;;5.90;99.90;;;;;;5108431;28;20076;-58
2023/04/04 09:01:18;;;;;;;6.38;2.78;;;5.90;99.90;;;;;;5102940;28;20040;-59
2023/04/04 09:03:47;;;;;;;8.30;2.70;;;6.00;99.90;;;;;;5103510;28;20246;-57
2023/04/04 09:06:15;;;;;;;6.43;3.05;;;6.00;99.90;;;;;;5109576;28;20051;-58
2023/04/04 09:08:44;;;;;;;8.18;3.40;;;6.20;99.90;;;;;;5090925;28;20040;-58
2023/04/04 09:11:13;;;;;;;11.98;3.05;;;6.20;99.90;;;;;;5109537;28;20043;-59
2023/04/04 09:13:43;;;;;;;7.65;2.85;;;6.30;99.90;;;;;;5107400;28;20051;-58
2023/04/04 09:16:12;;;;;;;12.32;3.72;;;6.30;99.90;;;;;;5108861;28;20206;-58
2023/04/04 09:18:40;;;;;;;9.55;3.60;;;6.40;99.90;;;;;;5107650;28;20042;-58
2023/04/04 09:21:11;;;;;;;14.93;3.78;;;6.50;99.90;;;;;;5089891;28;20048;-59
2023/04/04 09:23:39;;;;;;;8.85;3.50;;;6.60;99.90;;;;;;5100152;28;20047;-59
2023/04/04 09:26:06;;;;;;;9.40;3.65;;;6.70;99.90;;;;;;5088709;28;20403;-58
2023/04/04 09:28:34;;;;;;;7.90;4.45;;;6.80;99.90;;;;;;5100244;28;20036;-59
2023/04/04 09:31:05;;;;;;;8.55;4.05;;;6.90;99.90;;;;;;5090511;28;20066;-58
2023/04/04 09:33:33;;;;;;;13.20;4.40;;;7.00;99.90;;;;;;5108190;28;20047;-58
2023/04/04 09:36:08;;;;;;;9.77;4.63;;;7.10;99.90;;;;;;5084821;28;20063;-58
2023/04/04 09:38:39;;;;;;;11.85;4.22;;;7.20;99.90;;;;;;5108238;28;20051;-58
2023/04/04 09:41:10;;;;;;;10.23;4.25;;;7.30;99.90;;;;;;5108820;28;20055;-57
2023/04/04 09:43:39;;;;;;;8.57;4.03;;;7.40;99.90;;;;;;5105903;28;20499;-58
2023/04/04 09:46:09;;;;;;;18.85;5.65;;;7.50;99.90;;;;;;5107316;28;20055;-58
2023/04/04 09:48:37;;;;;;;12.70;5.07;;;7.60;99.90;;;;;;5076928;28;20055;-57
2023/04/04 09:51:11;;;;;;;8.88;5.03;;;7.70;99.90;;;;;;5108671;28;20051;-57
2023/04/04 09:53:40;;;;;;;11.20;5.25;;;7.70;99.90;;;;;;5108436;28;20047;-57
2023/04/04 09:56:10;;;;;;;10.88;4.60;;;7.80;99.90;;;;;;5105493;28;20048;-58
2023/04/04 09:58:37;;;;;;;11.07;5.40;;;7.90;99.90;;;;;;5098432;28;20402;-57
2023/04/04 10:01:19;;;;;;;12.98;4.50;;;8.00;99.90;;;;;;5108611;28;20047;-57
2023/04/04 10:03:53;;;;;;;8.70;4.97;;;8.10;99.90;;;;;;5107571;28;20039;-57
2023/04/04 10:06:22;;;;;;;9.65;4.60;;;8.20;99.90;;;;;;5104232;28;20047;-57
2023/04/04 10:08:51;;;;;;;8.27;4.70;;;8.20;99.90;;;;;;5102117;28;20519;-57
2023/04/04 10:11:34;;;;;;;10.00;4.68;;;8.30;99.90;;;;;;5090421;28;20052;-56
2023/04/04 10:14:05;;;;;;;12.73;4.93;;;8.40;99.90;;;;;;5089502;28;20044;-56
2023/04/04 10:16:37;;;;;;;7.95;4.22;;;8.40;99.90;;;;;;5108185;28;20051;-56
2023/04/04 10:19:06;;;;;;;8.90;4.35;;;8.50;99.90;;;;;;5107317;28;20036;-57
2023/04/04 10:21:34;;;;;;;15.18;5.38;;;8.60;99.90;;;;;;5069118;28;20059;-58
2023/04/04 10:24:07;;;;;;;13.50;4.85;;;8.70;99.90;;;;;;5087385;28;20052;-58
2023/04/04 10:26:36;;;;;;;11.05;5.20;;;8.80;99.90;;;;;;5076948;28;20059;-57
2023/04/04 10:29:07;;;;;;;10.18;4.45;;;9.00;99.90;;;;;;5105742;28;20058;-57
2023/04/04 10:31:40;;;;;;;15.93;4.93;;;9.00;99.90;;;;;;5104844;28;20047;-58
2023/04/04 10:34:27;;;;;;;9.63;4.90;;;9.10;99.90;;;;;;5103983;28;20051;-57
2023/04/04 10:37:08;;;;;;;9.02;4.60;;;9.20;99.90;;;;;;5097129;28;20055;-56
2023/04/04 10:39:48;;;;;;;11.60;5.03;;;9.30;99.90;;;;;;5105651;28;20048;-56
2023/04/04 10:42:17;;;;;;;11.95;4.28;;;9.50;99.90;;;;;;5103511;28;20043;-56
2023/04/04 10:44:46;;;;;;;12.52;5.20;;;9.60;99.90;;;;;;5109581;28;20055;-58
2023/04/04 10:47:20;;;;;;;12.35;4.88;;;9.70;99.90;;;;;;5106484;28;20047;-57
2023/04/04 10:49:50;;;;;;;8.35;4.38;;;9.80;99.90;;;;;;5111295;28;20487;-57
2023/04/04 10:52:19;;;;;;;11.93;5.65;;;9.90;99.90;;;;;;5096564;28;20475;-57
2023/04/04 10:54:51;;;;;;;12.75;4.93;;;10.00;99.90;;;;;;5088297;28;20043;-57
2023/04/04 10:57:20;;;;;;;16.60;5.18;;;10.10;99.90;;;;;;5107194;28;20537;-58
2023/04/04 11:00:09;;;;;;;12.75;4.90;;;10.30;99.90;;;;;;5071151;28;20040;-57
2023/04/04 11:02:50;;;;;;;9.00;4.68;;;10.30;99.90;;;;;;5107633;28;20394;-57
2023/04/04 11:05:36;;;;;;;11.38;4.75;;;10.40;99.90;;;;;;5111296;28;20043;-56
2023/04/04 11:08:09;;;;;;;10.70;5.07;;;10.50;99.90;;;;;;5102877;28;20051;-56
2023/04/04 11:10:38;;;;;;;11.07;6.47;;;10.60;99.90;;;;;;5111518;28;20043;-57
2023/04/04 11:13:25;;;;;;;12.30;5.05;;;10.70;99.90;;;;;;5111250;28;20380;-57
2023/04/04 11:16:02;;;;;;;13.98;5.53;;;10.70;99.90;;;;;;5111679;28;20062;-56
2023/04/04 11:18:40;;;;;;;10.48;5.93;;;10.80;99.90;;;;;;5104461;28;20036;-57
2023/04/04 11:21:12;;;;;;;10.98;5.93;;;10.90;99.90;;;;;;5089077;28;20051;-57
2023/04/04 11:23:58;;;;;;;11.48;5.72;;;11.10;99.90;;;;;;5079244;28;20043;-58
2023/04/04 11:26:29;;;;;;;8.98;5.00;;;11.10;99.90;;;;;;5098941;28;20525;-57
2023/04/04 11:28:58;;;;;;;15.40;5.15;;;11.20;99.90;;;;;;5110927;28;20040;-58
2023/04/04 11:31:33;;;;;;;9.53;5.07;;;11.30;99.90;;;;;;5106305;28;20415;-58
2023/04/04 11:34:07;;;;;;;8.60;4.88;;;11.40;99.90;;;;;;5106758;28;20647;-61
2023/04/04 11:36:39;;;;;;;12.85;4.72;;;11.60;99.90;;;;;;5092436;28;20054;-58
2023/04/04 11:39:16;;;;;;;8.55;5.13;;;11.70;99.90;;;;;;5111047;28;20379;-58
2023/04/04 11:41:48;;;;;;;15.40;5.95;;;12.00;99.90;;;;;;5103683;28;20352;-58
2023/04/04 11:44:17;;;;;;;12.13;5.07;;;12.10;99.20;;;;;;5092666;28;20044;-58
2023/04/04 11:46:46;;;;;;;10.38;5.30;;;12.30;98.60;;;;;;5091043;28;20048;-59
2023/04/04 11:49:17;;;;;;;12.60;4.60;;;12.40;98.40;;;;;;5108905;28;20039;-57
2023/04/04 11:51:45;;;;;;;9.80;5.45;;;12.60;98.50;;;;;;5071570;28;20388;-58
2023/04/04 11:54:14;;;;;;;10.05;5.13;;;12.90;97.90;;;;;;5097626;28;20044;-59
2023/04/04 11:56:43;;;;;;;9.05;4.65;;;13.10;97.50;;;;;;5110825;28;20048;-58
2023/04/04 11:59:12;;;;;;;10.57;4.88;;;13.30;95.80;;;;;;5110564;28;20047;-58
2023/04/04 12:01:40;;;;;;;10.30;4.97;;;13.50;95.20;;;;;;5108239;28;20056;-59
2023/04/04 12:04:09;;;;;;;14.90;5.40;;;13.70;92.20;;;;;;5107181;28;20051;-57
2023/04/04 12:06:38;;;;;;;13.88;4.90;;;14.30;92.30;;;;;;5088011;28;20051;-58
2023/04/04 12:09:06;;;;;;;10.20;5.03;;;14.30;92.20;;;;;;5110508;28;20047;-59
2023/04/04 12:11:35;;;;;;;16.48;4.57;;;14.50;87.90;;;;;;5110282;28;20048;-59
2023/04/04 12:14:02;;;;;;;9.10;4.87;;;15.00;88.00;;;;;;5109710;28;20047;-58
2023/04/04 12:16:30;;;;;;;10.95;5.25;;;15.00;89.00;;;;;;5108165;28;20035;-57
2023/04/04 12:19:01;;;;;;;10.20;5.32;;;15.20;83.40;;;;;;5109010;28;20059;-58
2023/04/04 12:21:32;;;;;;;;;;;15.30;82.40;;;;;;5110242;28;20039;-58
2023/04/04 12:23:59;;;;;;;12.13;5.22;;;15.70;80.10;;;;;;5071497;28;20367;-58
2023/04/04 12:26:28;;;;;;;10.18;5.72;;;15.80;75.80;;;;;;5098745;28;20389;-58
2023/04/04 12:28:58;;;;;;;9.50;5.15;;;15.80;76.40;;;;;;5104733;28;20058;-59
2023/04/04 12:31:29;;;;;;;9.80;4.88;;;15.90;76.70;;;;;;5100216;28;20047;-58
2023/04/04 12:33:58;;;;;;;13.18;5.35;;;16.00;78.10;;;;;;5110176;28;20475;-57
2023/04/04 12:36:28;;;;;;;13.65;5.93;;;16.30;76.40;;;;;;5108432;28;20055;-58
2023/04/04 12:38:57;;;;;;;;;;;16.40;74.60;;;;;;5104377;28;20402;-59
2023/04/04 12:41:25;;;;;;;12.05;5.38;;;16.60;74.20;;;;;;5094947;28;20307;-59
2023/04/04 12:44:04;;;;;;;11.93;5.53;;;16.70;74.90;;;;;;5106493;28;20040;-58
2023/04/04 12:46:39;;;;;;;9.90;5.45;;;16.90;72.40;;;;;;5109060;28;20052;-58
2023/04/04 12:49:10;;;;;;;8.60;5.18;;;17.10;72.50;;;;;;5109148;28;20042;-59
2023/04/04 12:51:37;;;;;;;13.73;5.63;;;17.50;71.00;;;;;;5106726;28;20044;-59
2023/04/04 12:54:06;;;;;;;12.50;5.80;;;17.60;71.20;;;;;;5088332;28;20044;-59
2023/04/04 12:56:35;;;;;;;11.13;6.25;;;17.80;70.80;;;;;;5089914;28;20534;-60
2023/04/04 12:59:07;;;;;;;13.05;6.22;;;17.90;62.90;;;;;;5104062;28;20047;-59
2023/04/04 13:01:36;;;;;;;13.60;6.10;;;17.90;64.10;;;;;;5108050;28;20180;-59
2023/04/04 13:04:07;;;;;;;18.08;7.10;;;17.80;64.50;;;;;;5103805;28;20044;-59
2023/04/04 13:06:36;;;;;;;12.88;6.10;;;17.80;64.80;;;;;;5108121;28;20082;-59